Airfield :
LOGIN :

Register | Disclaimer

   EN    FR    IT 

 










Legend :    VFR   Marginal VFR   IFR   Intensive IFR   Very Intensive IFR
Visi :
Ceiling :
>= 8 km
>= 3000ft
5 to 8 km
1000 to 3000 ft
1500m to 5 km
500 to 1000 ft
800 to 1500m
200 to 500 ft
< 800m
< 200 ft
Symbols :   Thunderstorms  Fog  Heavy snow  Heavy precipitations  Wind > 20 kt
SIGMETs :     Misc.  Thunderstorms  Icing  Turbulence  Mountain Waves  Volcanic Ashes






- Airport Elevation : 401 ft
- IATA code : LEQ


EGHC - Land's End

CURRENT METAR :
  • 290950Z 22021KT 8000 SCT004 BKN020 13/13 Q1013

EXPIRED METARs :
  • 290920Z 22020KT 8000 SCT005 BKN015 13/13 Q1012
  • 290850Z 22021KT 8000 SCT006 BKN012 13/12 Q1012
  • 290820Z 22018KT 7000 -SHRA SCT007 BKN012 13/12 Q1012
  • 290750Z 22018KT 7000 VCSH SCT007 BKN010 13/12 Q1012

TAF TAF EGHC
Valid from the 29 at 09:00 until the 29 at 18:00 UTC


290805Z 2909/2918 22020KT 9999 SCT013
TEMPO 2909/2918 6000 -RADZ BKN010
PROB30
TEMPO 2909/2918 23023G33KT 4000 RADZ BKN006



MET'MAP, your aeronautical weather chart ! - Copyright ORBIFLY December 2007 - Disclaimer

ORBIFLY MET'MAP TEAM :

Programming & Development : Alexandra Zaïnal
Concept & original design : Baudouin d'Aumeries
Assistance for programming : Marc-Olivier Méhu
Technical & hardware support : Manuel Goepfert

Contact : metmap@orbifly.com




SOURCES & CREDITS :

   NOAA